Time;durP1;ratioP1;P1;durP2;ratioP2;P2;SDS_P1;SDS_P2;PMS_P1;PMS_P2;Temp;Humidity;BMP_temperature;BMP_pressure;BME280_temperature;BME280_humidity;BME280_pressure;Samples;Min_cycle;Max_cycle;Signal;HPM_P1;HPM_P2
2023/06/03 00:01:36;;;;;;;3.60;0.63;;;13.20;86.90;;;;;;5050589;28;20425;-50
2023/06/03 00:04:04;;;;;;;1.02;0.30;;;13.10;86.90;;;;;;5042707;28;20565;-54
2023/06/03 00:06:29;;;;;;;2.63;0.43;;;13.10;86.30;;;;;;5030457;28;20110;-50
2023/06/03 00:08:55;;;;;;;2.25;0.40;;;13.10;86.50;;;;;;5031074;28;20041;-50
2023/06/03 00:11:20;;;;;;;7.50;0.38;;;13.10;86.70;;;;;;5031703;28;20486;-53
2023/06/03 00:13:47;;;;;;;2.60;0.20;;;13.00;86.70;;;;;;5031609;28;20045;-53
2023/06/03 00:16:13;;;;;;;2.25;0.30;;;13.00;86.60;;;;;;5040240;28;20049;-49
2023/06/03 00:18:38;;;;;;;1.60;0.40;;;13.00;86.20;;;;;;5050848;28;20033;-50
2023/06/03 00:21:04;;;;;;;0.68;0.30;;;13.00;86.50;;;;;;5050988;28;20041;-55
2023/06/03 00:23:32;;;;;;;5.00;0.55;;;13.00;86.90;;;;;;5050645;28;20499;-49
2023/06/03 00:25:57;;;;;;;0.50;0.20;;;12.90;86.60;;;;;;5051108;28;20059;-49
2023/06/03 00:28:23;;;;;;;8.68;0.32;;;12.80;87.00;;;;;;5051039;28;20505;-50
2023/06/03 00:30:48;;;;;;;0.63;0.28;;;12.80;86.90;;;;;;5050872;28;20045;-51
2023/06/03 00:33:14;;;;;;;0.52;0.20;;;12.80;86.90;;;;;;5051015;28;20481;-49
2023/06/03 00:35:40;;;;;;;2.30;0.52;;;12.70;87.30;;;;;;5050757;28;20441;-50
2023/06/03 00:38:05;;;;;;;3.25;0.40;;;12.70;86.60;;;;;;5049838;28;20040;-50
2023/06/03 00:40:31;;;;;;;2.72;0.40;;;12.60;86.70;;;;;;5051031;28;20124;-53
2023/06/03 00:42:56;;;;;;;1.95;0.30;;;12.60;86.70;;;;;;5050592;28;20037;-52
2023/06/03 00:45:22;;;;;;;3.47;0.40;;;12.60;86.50;;;;;;5050688;28;20427;-50
2023/06/03 00:47:48;;;;;;;1.83;0.50;;;12.50;86.60;;;;;;5050218;28;20188;-53
2023/06/03 00:50:14;;;;;;;1.85;0.30;;;12.60;86.60;;;;;;5050555;28;20338;-53
2023/06/03 00:52:41;;;;;;;1.40;0.47;;;12.50;86.40;;;;;;5041537;28;20041;-51
2023/06/03 00:55:07;;;;;;;2.53;0.30;;;12.50;86.30;;;;;;5030585;28;20120;-49
2023/06/03 00:57:32;;;;;;;2.20;0.45;;;12.50;86.30;;;;;;5031690;28;20042;-53
2023/06/03 00:59:58;;;;;;;1.80;0.30;;;12.50;86.10;;;;;;5045592;28;20045;-52
2023/06/03 01:02:24;;;;;;;2.25;0.30;;;12.40;86.10;;;;;;5044234;28;20037;-50
2023/06/03 01:04:50;;;;;;;1.98;0.50;;;12.40;86.10;;;;;;5042533;28;20111;-50
2023/06/03 01:07:46;;;;;;;0.55;0.25;;;12.40;85.80;;;;;;5049652;28;20036;-53
2023/06/03 01:10:38;;;;;;;2.05;0.30;;;12.40;85.90;;;;;;5030480;28;20033;-52
2023/06/03 01:13:15;;;;;;;2.50;0.40;;;12.30;85.90;;;;;;5030095;28;20103;-51
2023/06/03 01:15:43;;;;;;;2.20;0.40;;;12.20;85.90;;;;;;5030115;28;20180;-49
2023/06/03 01:18:14;;;;;;;4.75;0.57;;;12.20;85.80;;;;;;5029640;28;20045;-52
2023/06/03 01:20:40;;;;;;;2.63;0.40;;;12.20;85.90;;;;;;5039173;28;20039;-53
2023/06/03 01:23:24;;;;;;;1.23;0.32;;;12.10;85.70;;;;;;5049884;28;20043;-52
2023/06/03 01:25:57;;;;;;;0.50;0.25;;;12.10;85.90;;;;;;5050202;28;20029;-53
2023/06/03 01:28:23;;;;;;;5.40;0.30;;;12.10;86.00;;;;;;5048497;28;20053;-52
2023/06/03 01:30:51;;;;;;;1.25;0.40;;;12.00;86.00;;;;;;5049876;28;20514;-50
2023/06/03 01:33:20;;;;;;;5.32;0.30;;;12.00;86.10;;;;;;5049910;28;20041;-50
2023/06/03 01:35:47;;;;;;;1.42;0.20;;;11.90;85.70;;;;;;5050360;28;20043;-50
2023/06/03 01:38:13;;;;;;;1.33;0.40;;;12.00;86.00;;;;;;5049389;28;20064;-51
2023/06/03 01:40:39;;;;;;;1.65;0.35;;;11.90;85.90;;;;;;5048365;28;20553;-50
2023/06/03 01:43:05;;;;;;;1.10;0.30;;;11.90;86.00;;;;;;5050051;28;20048;-50
2023/06/03 01:45:31;;;;;;;1.10;0.30;;;11.80;86.10;;;;;;5049901;28;20040;-50
2023/06/03 01:47:57;;;;;;;6.07;0.47;;;11.90;86.10;;;;;;5049583;28;20422;-50
2023/06/03 01:50:23;;;;;;;6.32;0.30;;;11.80;85.90;;;;;;5049722;28;20390;-50
2023/06/03 01:52:49;;;;;;;1.00;0.28;;;11.80;86.00;;;;;;5049805;28;20048;-53
2023/06/03 01:55:14;;;;;;;1.67;0.30;;;11.80;85.80;;;;;;5048209;28;20094;-52
2023/06/03 01:57:40;;;;;;;1.52;0.22;;;11.70;86.00;;;;;;5036411;28;20502;-51
2023/06/03 02:00:07;;;;;;;2.13;0.73;;;11.70;86.00;;;;;;5029787;28;20038;-49
2023/06/03 02:02:33;;;;;;;0.60;0.20;;;11.70;86.00;;;;;;5035454;28;20040;-49
2023/06/03 02:04:58;;;;;;;3.15;0.30;;;11.70;86.00;;;;;;5038628;28;20029;-49
2023/06/03 02:07:30;;;;;;;1.95;0.30;;;11.70;85.90;;;;;;5042812;28;20600;-51
2023/06/03 02:09:59;;;;;;;1.52;0.30;;;11.60;86.00;;;;;;5033378;28;20440;-52
2023/06/03 02:12:24;;;;;;;1.70;0.30;;;11.60;86.00;;;;;;5044147;28;20105;-49
2023/06/03 02:14:53;;;;;;;2.58;0.30;;;11.50;86.10;;;;;;5053594;28;20037;-49
2023/06/03 02:17:22;;;;;;;3.53;0.30;;;11.50;86.20;;;;;;5053588;28;20041;-49
2023/06/03 02:19:48;;;;;;;2.33;0.30;;;11.50;86.10;;;;;;5053086;28;20052;-52
2023/06/03 02:22:14;;;;;;;1.02;0.30;;;11.40;86.20;;;;;;5053256;28;20044;-52
2023/06/03 02:24:39;;;;;;;2.05;0.30;;;11.40;86.10;;;;;;5041308;28;20037;-51
2023/06/03 02:27:07;;;;;;;1.17;0.30;;;11.40;86.20;;;;;;5033939;28;20041;-49
2023/06/03 02:29:32;;;;;;;0.75;0.40;;;11.30;86.20;;;;;;5033350;28;20081;-49
2023/06/03 02:31:59;;;;;;;1.45;0.45;;;11.30;86.20;;;;;;5032771;28;20069;-55
2023/06/03 02:34:25;;;;;;;0.70;0.32;;;11.30;86.20;;;;;;5032454;28;20037;-49
2023/06/03 02:36:52;;;;;;;0.77;0.35;;;11.30;86.20;;;;;;5032801;28;20103;-50
2023/06/03 02:39:18;;;;;;;1.08;0.40;;;11.20;86.30;;;;;;5033164;28;20469;-51
2023/06/03 02:41:44;;;;;;;0.70;0.30;;;11.20;86.30;;;;;;5032950;28;20045;-49
2023/06/03 02:44:12;;;;;;;1.08;0.30;;;11.20;86.40;;;;;;5033110;28;20129;-52
2023/06/03 02:46:38;;;;;;;3.92;0.30;;;11.20;86.40;;;;;;5032869;28;20077;-49
2023/06/03 02:49:05;;;;;;;3.23;0.30;;;11.10;86.30;;;;;;5032594;28;20076;-49
2023/06/03 02:51:31;;;;;;;2.80;0.52;;;11.10;86.40;;;;;;5031206;28;20608;-52
2023/06/03 02:53:56;;;;;;;1.37;0.30;;;11.10;86.50;;;;;;5032851;28;20513;-50
2023/06/03 02:56:23;;;;;;;1.27;0.38;;;11.10;86.70;;;;;;5032867;28;20453;-49
2023/06/03 02:58:50;;;;;;;2.83;0.30;;;11.00;86.80;;;;;;5032476;28;20049;-52
2023/06/03 03:01:16;;;;;;;1.30;0.30;;;11.00;86.80;;;;;;5044211;28;20080;-52
2023/06/03 03:03:41;;;;;;;3.00;0.30;;;11.00;86.80;;;;;;5052574;28;20091;-54
2023/06/03 03:06:08;;;;;;;2.80;0.40;;;10.90;87.00;;;;;;5052176;28;20557;-53
2023/06/03 03:08:34;;;;;;;0.73;0.20;;;10.90;87.00;;;;;;5049197;28;20069;-54
2023/06/03 03:11:00;;;;;;;2.03;0.20;;;10.90;87.10;;;;;;5049371;28;20064;-52
2023/06/03 03:13:25;;;;;;;1.65;0.38;;;10.80;87.10;;;;;;5039176;28;20132;-50
2023/06/03 03:15:51;;;;;;;2.92;0.32;;;10.80;87.20;;;;;;5052333;28;20041;-52
2023/06/03 03:18:17;;;;;;;0.68;0.30;;;10.80;87.30;;;;;;5041686;28;20064;-49
2023/06/03 03:20:43;;;;;;;0.73;0.30;;;10.70;87.70;;;;;;5031608;28;20068;-49
2023/06/03 03:23:12;;;;;;;0.98;0.50;;;10.70;87.90;;;;;;5032281;28;20107;-52
2023/06/03 03:25:38;;;;;;;0.95;0.30;;;10.60;88.00;;;;;;5032362;28;20068;-50
2023/06/03 03:28:03;;;;;;;4.45;0.40;;;10.60;88.00;;;;;;5031706;28;20096;-52
2023/06/03 03:30:29;;;;;;;1.48;0.43;;;10.50;88.40;;;;;;5041655;28;20036;-51
2023/06/03 03:32:58;;;;;;;3.20;0.70;;;10.50;88.40;;;;;;5050266;28;20497;-53
2023/06/03 03:35:24;;;;;;;5.22;0.40;;;10.50;88.50;;;;;;5052196;28;20045;-49
2023/06/03 03:37:58;;;;;;;3.00;0.50;;;10.50;88.70;;;;;;5051759;28;20041;-51
2023/06/03 03:40:23;;;;;;;0.40;0.30;;;10.50;88.70;;;;;;5051868;28;20521;-50
2023/06/03 03:42:50;;;;;;;5.63;0.70;;;10.50;88.70;;;;;;5050544;28;20041;-50
2023/06/03 03:45:18;;;;;;;3.17;0.40;;;10.50;88.80;;;;;;5051764;28;20047;-53
2023/06/03 03:47:47;;;;;;;2.58;0.30;;;10.50;88.90;;;;;;5050948;28;20397;-52
2023/06/03 03:50:25;;;;;;;2.30;0.47;;;10.50;89.00;;;;;;5051729;28;20405;-50
2023/06/03 03:52:51;;;;;;;7.00;0.30;;;10.50;89.30;;;;;;5050482;28;20045;-53
2023/06/03 03:55:17;;;;;;;3.08;0.32;;;10.50;89.50;;;;;;5051664;28;20398;-49
2023/06/03 03:57:42;;;;;;;4.33;0.43;;;10.50;89.60;;;;;;5050038;28;20040;-49
2023/06/03 04:00:09;;;;;;;0.77;0.20;;;10.50;89.70;;;;;;5050917;28;20268;-50
2023/06/03 04:02:42;;;;;;;2.35;0.38;;;10.50;89.90;;;;;;5051662;28;20045;-49
2023/06/03 04:05:13;;;;;;;1.55;0.40;;;10.50;90.00;;;;;;5051474;28;20037;-49
2023/06/03 04:07:40;;;;;;;2.60;0.30;;;10.50;90.10;;;;;;5036480;28;20033;-51
2023/06/03 04:10:09;;;;;;;0.80;0.40;;;10.50;90.10;;;;;;5031670;28;20129;-49
2023/06/03 04:12:38;;;;;;;0.55;0.30;;;10.40;90.20;;;;;;5034914;28;20052;-53
2023/06/03 04:15:04;;;;;;;0.60;0.30;;;10.50;90.20;;;;;;5039973;28;20041;-49
2023/06/03 04:17:30;;;;;;;1.35;0.35;;;10.50;90.30;;;;;;5035586;28;20045;-49
2023/06/03 04:19:57;;;;;;;0.88;0.30;;;10.50;90.60;;;;;;5050359;28;20119;-49
2023/06/03 04:22:24;;;;;;;2.22;0.38;;;10.50;90.50;;;;;;5045656;28;20044;-49
2023/06/03 04:25:00;;;;;;;4.32;0.70;;;10.50;90.50;;;;;;5031362;28;20112;-50
2023/06/03 04:27:26;;;;;;;1.73;0.60;;;10.50;90.60;;;;;;5031505;28;20091;-49
2023/06/03 04:29:52;;;;;;;1.83;0.30;;;10.50;90.80;;;;;;5030677;28;20422;-51
2023/06/03 04:32:18;;;;;;;2.17;0.52;;;10.50;90.80;;;;;;5031201;28;20037;-55
2023/06/03 04:34:54;;;;;;;1.80;0.50;;;10.60;90.90;;;;;;5037960;28;20454;-52
2023/06/03 04:37:21;;;;;;;1.65;0.40;;;10.60;91.00;;;;;;5050770;28;20110;-52
2023/06/03 04:39:46;;;;;;;1.17;0.30;;;10.60;90.90;;;;;;5049943;28;20067;-51
2023/06/03 04:42:12;;;;;;;4.22;0.50;;;10.60;91.00;;;;;;5050823;28;20037;-53
2023/06/03 04:44:39;;;;;;;1.10;0.30;;;10.60;91.10;;;;;;5050515;28;20546;-53
2023/06/03 04:47:10;;;;;;;3.35;0.35;;;10.70;91.20;;;;;;5050759;28;20033;-49
2023/06/03 04:49:39;;;;;;;0.70;0.40;;;10.70;91.20;;;;;;5050539;28;20037;-52
2023/06/03 04:52:09;;;;;;;0.63;0.30;;;10.80;91.30;;;;;;5050277;28;20493;-52
2023/06/03 04:54:38;;;;;;;2.92;0.55;;;10.80;91.30;;;;;;5050472;28;20506;-53
2023/06/03 04:57:04;;;;;;;4.90;0.60;;;10.80;91.30;;;;;;5050514;28;20033;-52
2023/06/03 04:59:30;;;;;;;4.25;0.70;;;10.90;91.30;;;;;;5048771;28;20419;-52
2023/06/03 05:01:56;;;;;;;12.88;1.73;;;10.90;91.30;;;;;;5050386;28;20052;-50
2023/06/03 05:04:22;;;;;;;13.20;0.98;;;11.00;91.50;;;;;;5050377;28;20520;-53
2023/06/03 05:06:48;;;;;;;14.00;1.23;;;11.10;91.50;;;;;;5049811;28;20583;-52
2023/06/03 05:09:15;;;;;;;12.32;2.10;;;11.20;91.40;;;;;;5049896;28;20513;-49
2023/06/03 05:11:41;;;;;;;11.43;1.25;;;11.30;91.50;;;;;;5039577;28;20055;-50
2023/06/03 05:14:07;;;;;;;;;;;11.40;91.50;;;;;;5030899;28;20049;-52
2023/06/03 05:16:33;;;;;;;3.63;0.57;;;11.40;91.50;;;;;;5030185;28;19940;-49
2023/06/03 05:18:59;;;;;;;5.05;0.60;;;11.50;91.40;;;;;;5038559;28;20516;-50
2023/06/03 05:21:24;;;;;;;5.90;0.57;;;11.60;91.40;;;;;;5042177;28;20033;-49
2023/06/03 05:23:50;;;;;;;4.47;0.50;;;11.70;91.40;;;;;;5043969;28;20296;-50
2023/06/03 05:26:16;;;;;;;3.72;0.43;;;11.80;91.40;;;;;;5041443;28;20073;-49
2023/06/03 05:28:41;;;;;;;3.55;0.95;;;11.90;91.40;;;;;;5029817;28;20403;-54
2023/06/03 05:31:07;;;;;;;1.60;0.50;;;11.90;91.30;;;;;;5042813;28;20366;-52
2023/06/03 05:33:35;;;;;;;2.55;0.55;;;12.00;91.30;;;;;;5050136;28;20041;-52
2023/06/03 05:36:00;;;;;;;4.57;0.40;;;12.10;91.50;;;;;;5049516;28;20044;-51
2023/06/03 05:38:27;;;;;;;4.07;0.60;;;12.20;91.50;;;;;;5049907;28;20041;-52
2023/06/03 05:40:53;;;;;;;1.02;0.50;;;12.30;91.20;;;;;;5050023;28;20048;-54
2023/06/03 05:43:19;;;;;;;3.10;0.50;;;12.40;91.20;;;;;;5039307;28;20053;-50
2023/06/03 05:45:46;;;;;;;2.20;0.73;;;12.40;91.00;;;;;;5034318;28;20268;-49
2023/06/03 05:48:11;;;;;;;2.20;0.70;;;12.60;91.00;;;;;;5033502;28;20042;-50
2023/06/03 05:50:46;;;;;;;2.00;0.40;;;12.60;91.10;;;;;;5040560;28;20062;-52
2023/06/03 05:53:12;;;;;;;2.75;0.77;;;12.70;90.80;;;;;;5038821;28;20037;-52
2023/06/03 05:55:37;;;;;;;4.03;0.77;;;12.80;90.70;;;;;;5035545;28;20541;-54
2023/06/03 05:58:03;;;;;;;1.02;0.73;;;12.90;90.70;;;;;;5057297;28;20059;-49
2023/06/03 06:00:28;;;;;;;6.05;0.40;;;13.00;90.80;;;;;;5037806;28;20402;-53
2023/06/03 06:02:54;;;;;;;8.55;0.60;;;13.10;91.10;;;;;;5037466;28;20030;-55
2023/06/03 06:05:20;;;;;;;2.95;0.50;;;13.20;90.70;;;;;;5033827;28;20037;-49
2023/06/03 06:07:45;;;;;;;1.52;0.50;;;13.30;91.00;;;;;;5051218;28;20521;-49
2023/06/03 06:10:11;;;;;;;28.38;1.42;;;13.40;90.60;;;;;;5053837;28;20033;-52
2023/06/03 06:12:37;;;;;;;3.13;0.70;;;13.50;90.60;;;;;;5036501;28;20045;-51
2023/06/03 06:15:03;;;;;;;2.40;0.40;;;13.60;90.60;;;;;;5034812;28;20050;-54
2023/06/03 06:17:28;;;;;;;5.60;0.63;;;13.80;90.80;;;;;;5048347;28;20119;-54
2023/06/03 06:19:54;;;;;;;4.25;0.85;;;13.90;90.70;;;;;;5066882;28;20505;-50
2023/06/03 06:22:19;;;;;;;2.90;0.55;;;14.00;90.30;;;;;;5059342;28;20045;-54
2023/06/03 06:24:45;;;;;;;2.38;0.30;;;14.00;89.50;;;;;;5052913;28;20041;-53
2023/06/03 06:27:11;;;;;;;4.25;0.50;;;14.10;89.60;;;;;;5051455;28;20462;-50
2023/06/03 06:29:36;;;;;;;1.13;0.40;;;14.20;88.80;;;;;;5069510;28;20481;-51
2023/06/03 06:32:03;;;;;;;3.92;0.38;;;14.30;89.10;;;;;;5056962;28;20037;-52
2023/06/03 06:34:31;;;;;;;7.28;0.70;;;14.50;89.00;;;;;;5042153;28;20068;-54
2023/06/03 06:36:58;;;;;;;5.60;0.40;;;14.50;89.30;;;;;;5039745;28;20572;-51
2023/06/03 06:39:33;;;;;;;2.70;0.30;;;14.70;88.70;;;;;;5041206;28;20420;-54
2023/06/03 06:42:12;;;;;;;12.35;1.10;;;14.80;87.20;;;;;;5036302;28;20036;-53
2023/06/03 06:44:49;;;;;;;8.00;0.60;;;14.90;87.00;;;;;;5042351;28;20045;-52
2023/06/03 06:47:21;;;;;;;73.15;5.45;;;15.00;86.90;;;;;;5053067;28;20096;-49
2023/06/03 06:49:50;;;;;;;54.97;3.30;;;15.10;86.10;;;;;;5034110;28;20033;-49
2023/06/03 06:52:16;;;;;;;9.02;0.70;;;15.20;86.60;;;;;;5056376;28;20115;-51
2023/06/03 06:54:42;;;;;;;2.35;0.40;;;15.30;86.40;;;;;;5057451;28;20125;-50
2023/06/03 06:57:08;;;;;;;4.93;0.57;;;15.40;85.60;;;;;;5032644;28;20073;-52
2023/06/03 06:59:33;;;;;;;2.75;0.60;;;15.40;85.00;;;;;;5032614;28;20069;-48
2023/06/03 07:01:59;;;;;;;20.90;1.17;;;15.40;84.50;;;;;;5032720;28;20395;-49
2023/06/03 07:04:25;;;;;;;256.05;19.75;;;15.50;84.50;;;;;;5032868;28;20505;-50
2023/06/03 07:06:51;;;;;;;80.40;6.63;;;15.50;84.00;;;;;;5032532;28;20033;-49
2023/06/03 07:09:16;;;;;;;7.78;0.60;;;15.50;84.40;;;;;;5046907;28;20033;-49
2023/06/03 07:11:46;;;;;;;5.35;0.20;;;15.70;84.70;;;;;;5052268;28;20106;-49
2023/06/03 07:14:13;;;;;;;3.85;0.32;;;15.80;83.70;;;;;;5048899;28;20379;-48
2023/06/03 07:16:42;;;;;;;17.80;1.25;;;15.90;84.00;;;;;;5039875;28;20556;-52
2023/06/03 07:19:08;;;;;;;7.43;0.30;;;15.90;83.10;;;;;;5038020;28;20052;-48
2023/06/03 07:21:34;;;;;;;8.45;0.50;;;15.90;83.70;;;;;;5051986;28;20037;-52
2023/06/03 07:24:00;;;;;;;5.65;0.47;;;16.00;83.20;;;;;;5050348;28;20052;-48
2023/06/03 07:26:32;;;;;;;1.52;0.30;;;16.10;82.70;;;;;;5047153;28;20037;-48
2023/06/03 07:28:57;;;;;;;2.72;0.20;;;16.20;83.30;;;;;;5051983;28;20037;-48
2023/06/03 07:31:24;;;;;;;5.28;0.30;;;16.40;82.40;;;;;;5052173;28;20040;-50
2023/06/03 07:33:51;;;;;;;15.93;1.00;;;16.50;81.90;;;;;;5052160;28;20387;-49
2023/06/03 07:36:20;;;;;;;4.03;0.30;;;16.50;81.40;;;;;;5052791;28;20120;-52
2023/06/03 07:38:57;;;;;;;3.33;0.32;;;16.60;80.30;;;;;;5071127;28;20409;-50
2023/06/03 07:41:45;;;;;;;2.72;0.30;;;16.60;80.20;;;;;;5065025;28;20495;-53
2023/06/03 07:44:13;;;;;;;5.97;0.40;;;16.60;80.40;;;;;;5036774;28;20088;-52
2023/06/03 07:46:43;;;;;;;3.10;0.20;;;16.60;80.50;;;;;;5039781;28;20295;-54
2023/06/03 07:49:19;;;;;;;4.05;0.52;;;16.80;80.10;;;;;;5051088;28;20044;-53
2023/06/03 07:51:47;;;;;;;5.80;0.50;;;16.80;78.80;;;;;;5045422;28;20095;-50
2023/06/03 07:54:13;;;;;;;1.05;0.20;;;16.80;78.80;;;;;;5051544;28;20041;-54
2023/06/03 07:56:39;;;;;;;3.22;0.30;;;17.00;80.00;;;;;;5052215;28;20051;-53
2023/06/03 07:59:06;;;;;;;0.70;0.20;;;17.10;79.50;;;;;;5047436;28;20037;-53
2023/06/03 08:01:35;;;;;;;3.90;0.52;;;17.20;78.80;;;;;;5039921;28;20106;-51
2023/06/03 08:04:18;;;;;;;0.80;0.57;;;17.20;78.20;;;;;;5045730;28;20048;-54
2023/06/03 08:06:47;;;;;;;6.85;0.40;;;17.30;77.80;;;;;;5065528;28;20032;-52
2023/06/03 08:09:23;;;;;;;3.65;0.35;;;17.30;78.00;;;;;;5050516;28;20552;-52
2023/06/03 08:11:49;;;;;;;1.17;0.30;;;17.40;76.50;;;;;;5044658;28;20036;-48
2023/06/03 08:14:14;;;;;;;2.13;0.20;;;17.40;76.80;;;;;;5050526;28;20044;-50
2023/06/03 08:16:40;;;;;;;0.60;0.13;;;17.40;75.40;;;;;;5048118;28;20026;-52
2023/06/03 08:19:07;;;;;;;0.55;0.10;;;17.40;75.00;;;;;;5031366;28;20049;-52
2023/06/03 08:21:33;;;;;;;1.35;0.10;;;17.50;75.70;;;;;;5033039;28;20538;-53
2023/06/03 08:23:59;;;;;;;5.30;0.22;;;17.60;74.90;;;;;;5050988;28;20468;-52
2023/06/03 08:26:26;;;;;;;0.60;0.10;;;17.70;72.20;;;;;;5049218;28;20033;-54
2023/06/03 08:28:52;;;;;;;0.75;0.20;;;17.80;73.50;;;;;;5049940;28;20037;-54
2023/06/03 08:31:18;;;;;;;6.22;0.10;;;17.90;71.80;;;;;;5050668;28;20037;-54
2023/06/03 08:33:43;;;;;;;1.42;0.20;;;17.90;70.80;;;;;;5032890;28;20047;-56
2023/06/03 08:36:09;;;;;;;1.27;0.20;;;17.90;72.60;;;;;;5030948;28;20041;-54
2023/06/03 08:38:35;;;;;;;3.03;0.20;;;17.90;71.80;;;;;;5046971;28;20410;-51
2023/06/03 08:41:01;;;;;;;14.68;0.20;;;18.00;71.50;;;;;;5060936;28;20037;-52
2023/06/03 08:43:36;;;;;;;3.60;0.30;;;18.10;70.20;;;;;;5040673;28;20452;-51
2023/06/03 08:46:22;;;;;;;3.38;0.22;;;18.30;71.00;;;;;;5050061;28;20072;-54
2023/06/03 08:49:03;;;;;;;1.23;0.28;;;18.40;71.20;;;;;;5041835;28;20272;-51
2023/06/03 08:51:36;;;;;;;2.05;0.20;;;18.60;70.50;;;;;;5053829;28;20032;-50
2023/06/03 08:54:13;;;;;;;1.10;0.20;;;18.70;69.90;;;;;;5049434;28;20091;-54
2023/06/03 08:56:45;;;;;;;1.70;0.25;;;18.70;67.80;;;;;;5058718;28;20059;-51
2023/06/03 08:59:15;;;;;;;3.08;0.20;;;18.80;68.10;;;;;;5070232;28;20048;-51
2023/06/03 09:01:46;;;;;;;4.82;0.20;;;18.80;67.60;;;;;;5041279;28;20412;-53
2023/06/03 09:04:13;;;;;;;2.63;0.10;;;18.90;67.80;;;;;;5048242;28;20324;-51
2023/06/03 09:06:46;;;;;;;1.85;0.30;;;18.90;66.90;;;;;;5049315;28;20036;-53
2023/06/03 09:09:12;;;;;;;2.47;0.15;;;18.80;66.50;;;;;;5063685;28;20045;-52
2023/06/03 09:11:39;;;;;;;2.40;0.20;;;18.70;66.30;;;;;;5044532;28;20463;-53
2023/06/03 09:14:05;;;;;;;1.50;0.13;;;18.60;66.30;;;;;;5048202;28;20048;-51
2023/06/03 09:16:32;;;;;;;4.63;0.20;;;18.50;67.50;;;;;;5040153;28;20494;-52
2023/06/03 09:18:59;;;;;;;2.88;0.10;;;18.40;66.70;;;;;;5027672;28;20069;-50
2023/06/03 09:21:26;;;;;;;1.90;0.32;;;18.30;66.30;;;;;;5035840;28;20072;-51
2023/06/03 09:23:52;;;;;;;1.48;0.20;;;18.30;66.70;;;;;;5048879;28;20498;-50
2023/06/03 09:26:18;;;;;;;7.15;0.35;;;18.30;68.10;;;;;;5035390;28;20088;-52
2023/06/03 09:28:45;;;;;;;2.08;0.20;;;18.40;68.30;;;;;;5040932;28;20263;-54
2023/06/03 09:31:11;;;;;;;5.57;0.20;;;18.50;67.10;;;;;;5031006;28;20060;-54
2023/06/03 09:33:37;;;;;;;1.77;0.35;;;18.60;67.00;;;;;;5029853;28;20052;-53
2023/06/03 09:36:13;;;;;;;1.10;0.20;;;18.70;66.60;;;;;;5043146;28;20037;-53
2023/06/03 09:38:46;;;;;;;1.55;0.20;;;18.80;65.10;;;;;;5029660;28;20490;-49
2023/06/03 09:41:18;;;;;;;3.55;0.20;;;18.80;66.50;;;;;;5030668;28;20050;-49
2023/06/03 09:43:57;;;;;;;1.55;0.20;;;18.90;67.10;;;;;;5029570;28;20128;-52
2023/06/03 09:46:23;;;;;;;2.38;0.22;;;19.00;67.30;;;;;;5056988;28;20296;-50
2023/06/03 09:48:49;;;;;;;4.07;0.32;;;19.10;67.70;;;;;;5049478;28;20505;-53
2023/06/03 09:51:15;;;;;;;12.15;0.45;;;19.20;67.80;;;;;;5048176;28;20043;-54
2023/06/03 09:53:41;;;;;;;5.30;0.10;;;19.30;68.30;;;;;;5044579;28;20037;-51
2023/06/03 09:56:26;;;;;;;1.02;0.10;;;19.40;67.50;;;;;;5040290;28;20499;-52
2023/06/03 09:59:13;;;;;;;1.08;0.20;;;19.50;67.00;;;;;;5068281;28;20040;-54
2023/06/03 10:01:39;;;;;;;6.90;0.80;;;19.60;66.80;;;;;;5058983;28;20057;-55
2023/06/03 10:04:04;;;;;;;7.85;0.20;;;19.70;67.70;;;;;;5030209;28;20296;-56
2023/06/03 10:06:30;;;;;;;2.97;0.10;;;19.70;67.60;;;;;;5028616;28;20041;-55
2023/06/03 10:08:56;;;;;;;1.73;0.20;;;19.70;65.60;;;;;;5030049;28;20045;-57
2023/06/03 10:11:23;;;;;;;2.83;0.20;;;19.70;67.00;;;;;;5042025;28;20033;-53
2023/06/03 10:14:02;;;;;;;8.60;0.25;;;19.70;66.20;;;;;;5047500;28;20106;-55
2023/06/03 10:16:28;;;;;;;1.15;0.38;;;19.80;65.40;;;;;;5069670;28;20438;-55
2023/06/03 10:18:54;;;;;;;1.83;0.20;;;19.80;65.80;;;;;;5031449;28;20080;-52
2023/06/03 10:21:21;;;;;;;1.77;0.20;;;19.80;65.70;;;;;;5034429;28;20037;-53
2023/06/03 10:23:48;;;;;;;33.50;2.92;;;19.90;66.00;;;;;;5031499;28;20042;-55
2023/06/03 10:26:16;;;;;;;25.48;2.42;;;20.00;65.80;;;;;;5029867;28;20418;-53
2023/06/03 10:28:43;;;;;;;13.15;0.98;;;20.00;65.90;;;;;;5037744;28;20041;-50
2023/06/03 10:31:12;;;;;;;1.02;0.10;;;20.10;65.30;;;;;;5053325;28;20059;-50
2023/06/03 10:33:40;;;;;;;12.02;0.63;;;20.10;66.70;;;;;;5038865;28;20041;-55
2023/06/03 10:36:06;;;;;;;4.03;0.20;;;20.20;67.00;;;;;;5032859;28;20409;-54
2023/06/03 10:38:32;;;;;;;4.53;0.20;;;20.20;65.40;;;;;;5045629;28;20032;-54
2023/06/03 10:41:00;;;;;;;7.18;0.65;;;20.20;65.30;;;;;;5053236;28;20080;-53
2023/06/03 10:43:29;;;;;;;3.42;0.32;;;20.30;66.50;;;;;;5041062;28;20048;-51
2023/06/03 10:45:57;;;;;;;2.90;0.20;;;20.30;65.80;;;;;;5015571;28;20046;-52
2023/06/03 10:48:24;;;;;;;1.85;0.17;;;20.40;64.60;;;;;;5043174;28;20418;-57
2023/06/03 10:51:27;;;;;;;3.67;0.20;;;20.40;64.90;;;;;;5063647;28;20047;-53
2023/06/03 10:54:16;;;;;;;0.75;0.10;;;20.50;65.10;;;;;;5054537;28;20044;-51
2023/06/03 10:56:57;;;;;;;3.35;0.17;;;20.60;64.00;;;;;;5045438;28;20087;-57
2023/06/03 10:59:27;;;;;;;6.22;0.20;;;20.60;64.10;;;;;;5045329;28;20033;-55
2023/06/03 11:01:58;;;;;;;3.78;0.50;;;20.60;63.80;;;;;;5071255;28;20650;-56
2023/06/03 11:04:25;;;;;;;2.15;0.40;;;20.70;63.20;;;;;;5059366;28;20076;-53
2023/06/03 11:06:51;;;;;;;9.20;0.40;;;20.70;62.40;;;;;;5036992;28;20044;-57
2023/06/03 11:09:29;;;;;;;;;;;20.90;63.60;;;;;;5048535;28;20041;-55
2023/06/03 11:11:59;;;;;;;;;;;21.00;62.40;;;;;;5051462;28;19916;-53
2023/06/03 11:14:24;;;;;;;4.22;0.40;;;21.00;61.80;;;;;;5035322;28;19917;-55
2023/06/03 11:16:56;;;;;;;;;;;21.10;61.80;;;;;;5049966;28;20119;-51
2023/06/03 11:19:33;;;;;;;2.60;0.20;;;21.00;60.30;;;;;;5054627;28;19917;-56
2023/06/03 11:22:07;;;;;;;1.90;0.17;;;21.00;61.00;;;;;;5052260;28;20044;-51
2023/06/03 11:24:41;;;;;;;4.25;0.38;;;21.10;62.20;;;;;;5035258;28;20095;-51
2023/06/03 11:27:10;;;;;;;4.47;0.20;;;21.10;61.00;;;;;;5033496;28;20029;-51
2023/06/03 11:29:45;;;;;;;5.10;0.30;;;21.10;61.70;;;;;;5048973;28;20091;-51
2023/06/03 11:32:24;;;;;;;14.00;0.40;;;21.20;61.80;;;;;;5051482;28;20037;-54
2023/06/03 11:34:51;;;;;;;2.67;0.20;;;21.20;60.40;;;;;;5032943;28;20060;-51
2023/06/03 11:37:19;;;;;;;1.90;0.20;;;21.30;61.30;;;;;;5033160;28;20033;-51
2023/06/03 11:40:05;;;;;;;1.23;0.17;;;21.30;61.50;;;;;;5047337;28;20049;-55
2023/06/03 11:42:46;;;;;;;3.72;0.13;;;21.30;61.10;;;;;;5050967;28;20037;-53
2023/06/03 11:45:18;;;;;;;0.95;0.30;;;21.30;60.40;;;;;;5030726;28;20042;-54
2023/06/03 11:47:59;;;;;;;2.55;0.20;;;21.20;60.20;;;;;;5032462;28;20090;-52
2023/06/03 11:50:53;;;;;;;0.50;0.10;;;21.20;60.50;;;;;;5031903;28;20041;-53
2023/06/03 11:53:35;;;;;;;61.10;3.08;;;21.30;60.50;;;;;;5041350;28;20115;-53
2023/06/03 11:56:11;;;;;;;6.22;0.40;;;21.40;61.30;;;;;;5051815;28;20040;-55
2023/06/03 11:58:37;;;;;;;1.00;0.20;;;21.40;60.20;;;;;;5046423;28;20036;-53
2023/06/03 12:01:17;;;;;;;1.50;0.30;;;21.30;60.10;;;;;;5032673;28;20047;-52
2023/06/03 12:03:57;;;;;;;32.92;1.55;;;21.40;61.60;;;;;;5046278;28;20491;-51
2023/06/03 12:06:22;;;;;;;10.02;0.57;;;21.40;60.80;;;;;;5050634;28;20041;-52
2023/06/03 12:08:49;;;;;;;;;;;21.40;60.90;;;;;;5063301;28;20029;-52
2023/06/03 12:11:37;;;;;;;2.70;0.20;;;21.40;59.90;;;;;;5051111;28;19971;-52
2023/06/03 12:14:03;;;;;;;1.75;0.20;;;21.40;61.20;;;;;;5042560;28;20048;-51
2023/06/03 12:16:32;;;;;;;;;;;21.40;61.90;;;;;;5048989;28;20036;-53
2023/06/03 12:19:04;;;;;;;0.70;0.20;;;21.50;61.80;;;;;;5052130;28;19917;-52
2023/06/03 12:21:35;;;;;;;11.60;0.75;;;21.60;61.40;;;;;;5071195;28;20401;-51
2023/06/03 12:24:08;;;;;;;1.02;0.20;;;21.80;60.90;;;;;;5060359;28;20041;-52
2023/06/03 12:26:38;;;;;;;3.60;0.20;;;21.80;60.00;;;;;;5049319;28;20041;-52
2023/06/03 12:29:08;;;;;;;21.67;1.42;;;21.90;61.30;;;;;;5039135;28;20037;-51
2023/06/03 12:31:35;;;;;;;1.48;0.25;;;22.00;61.00;;;;;;5050481;28;20036;-54
2023/06/03 12:34:00;;;;;;;1.75;0.20;;;22.00;61.80;;;;;;5047227;28;20047;-53
2023/06/03 12:36:46;;;;;;;;;;;22.00;60.50;;;;;;5031324;28;20057;-54
2023/06/03 12:39:11;;;;;;;1.00;0.38;;;21.90;61.60;;;;;;5034766;28;19917;-53
2023/06/03 12:41:37;;;;;;;;;;;21.90;61.10;;;;;;5051247;28;20048;-51
2023/06/03 12:44:04;;;;;;;2.90;0.25;;;21.90;61.00;;;;;;5049386;28;21937;-52
2023/06/03 12:46:30;;;;;;;4.25;0.20;;;22.00;61.80;;;;;;5048949;28;20068;-53
2023/06/03 12:48:58;;;;;;;;;;;22.10;61.70;;;;;;5049317;28;20040;-51
2023/06/03 12:51:31;;;;;;;5.53;0.20;;;22.30;61.00;;;;;;5036716;28;20306;-52
2023/06/03 12:53:57;;;;;;;2.45;0.20;;;22.30;60.00;;;;;;5050726;28;20041;-56
2023/06/03 12:56:27;;;;;;;0.57;0.20;;;22.30;59.90;;;;;;5049201;28;20516;-56